Time;durP1;ratioP1;P1;durP2;ratioP2;P2;SDS_P1;SDS_P2;PMS_P1;PMS_P2;Temp;Humidity;BMP_temperature;BMP_pressure;BME280_temperature;BME280_humidity;BME280_pressure;Samples;Min_cycle;Max_cycle;Signal;HPM_P1;HPM_P2
2023/06/25 00:00:31;;;;;;;8.50;5.00;;;19.30;98.30;;;20.00;100.00;98554.47;5027344;28;20477;-80
2023/06/25 00:03:01;;;;;;;6.13;4.53;;;19.30;98.70;;;20.01;100.00;98556.09;5026241;28;20473;-80
2023/06/25 00:05:31;;;;;;;7.27;4.33;;;19.20;98.50;;;19.94;100.00;98555.41;5027326;28;20580;-80
2023/06/25 00:08:00;;;;;;;6.77;4.47;;;19.20;98.60;;;19.87;100.00;98547.59;5027840;28;21050;-80
2023/06/25 00:10:29;;;;;;;6.20;4.40;;;19.10;98.70;;;19.82;100.00;98536.84;5027961;28;20919;-80
2023/06/25 00:12:58;;;;;;;6.27;4.53;;;19.10;98.90;;;19.92;100.00;98534.41;5026096;28;21071;-80
2023/06/25 00:15:27;;;;;;;7.50;5.03;;;19.10;99.00;;;19.82;100.00;98536.06;5026633;28;20470;-79
2023/06/25 00:17:56;;;;;;;6.60;4.60;;;19.00;98.90;;;19.77;100.00;98538.59;5027988;28;20470;-79
2023/06/25 00:20:25;;;;;;;6.47;4.60;;;19.00;98.70;;;19.70;100.00;98540.56;5029033;28;20464;-80
2023/06/25 00:22:55;;;;;;;7.17;4.60;;;19.00;98.80;;;19.63;100.00;98531.94;5028740;28;20893;-80
2023/06/25 00:25:36;;;;;;;7.43;5.30;;;18.90;98.80;;;19.58;100.00;98536.09;5028328;28;20486;-80
2023/06/25 00:28:08;;;;;;;5.80;4.47;;;18.90;99.00;;;19.54;100.00;98537.59;5028260;28;20477;-79
2023/06/25 00:30:38;;;;;;;6.67;4.43;;;18.80;99.20;;;19.56;100.00;98543.47;5027345;28;20983;-79
2023/06/25 00:33:08;;;;;;;5.50;4.23;;;18.80;99.10;;;19.53;100.00;98537.84;5028637;28;20473;-79
2023/06/25 00:36:07;;;;;;;8.43;4.80;;;18.80;99.10;;;19.48;100.00;98538.50;5027501;28;20548;-79
2023/06/25 00:38:39;;;;;;;13.30;5.33;;;18.80;99.10;;;19.46;100.00;98539.78;5026423;28;20458;-79
2023/06/25 00:41:10;;;;;;;7.50;4.90;;;18.70;99.20;;;19.39;100.00;98533.75;5028118;28;20470;-79
2023/06/25 00:43:42;;;;;;;10.53;4.93;;;18.60;99.00;;;19.36;100.00;98529.75;5026431;28;21318;-79
2023/06/25 00:46:15;;;;;;;8.40;5.20;;;18.60;99.00;;;19.26;100.00;98528.69;5028164;28;20460;-80
2023/06/25 00:48:47;;;;;;;6.87;4.53;;;18.60;99.60;;;19.23;100.00;98524.66;5027303;28;20523;-79
2023/06/25 00:51:27;;;;;;;5.03;4.20;;;18.50;99.20;;;19.21;100.00;98520.63;5026224;28;20497;-80
2023/06/25 00:53:57;;;;;;;7.73;5.03;;;18.50;99.20;;;19.20;100.00;98516.34;5027324;28;20829;-79
2023/06/25 00:56:29;;;;;;;9.60;4.90;;;18.50;99.40;;;19.19;100.00;98520.06;5026643;28;20821;-80
2023/06/25 00:59:01;;;;;;;9.73;4.97;;;18.40;99.40;;;19.11;100.00;98518.53;5027604;28;20470;-80
2023/06/25 01:01:40;;;;;;;5.87;4.50;;;18.40;99.50;;;19.04;100.00;98513.34;5027073;28;20554;-80
2023/06/25 01:04:23;;;;;;;5.87;4.17;;;18.40;99.70;;;19.02;100.00;98512.75;5026043;28;20477;-80
2023/06/25 01:06:56;;;;;;;9.67;5.20;;;18.30;99.60;;;19.01;100.00;98515.66;5028256;28;20544;-80
2023/06/25 01:09:28;;;;;;;7.10;4.67;;;18.30;99.50;;;18.94;100.00;98502.50;5027598;28;20541;-79
2023/06/25 01:12:05;;;;;;;7.03;4.77;;;18.20;99.50;;;18.90;100.00;98506.66;5026539;28;20820;-79
2023/06/25 01:14:34;;;;;;;8.70;4.63;;;18.20;99.90;;;18.89;100.00;98505.03;5027448;28;21010;-80
2023/06/25 01:17:05;;;;;;;6.70;4.67;;;18.20;99.90;;;18.86;100.00;98509.97;5026902;28;20489;-80
2023/06/25 01:19:35;;;;;;;6.13;4.03;;;18.10;99.70;;;18.81;100.00;98513.31;5026377;28;20540;-80
2023/06/25 01:22:06;;;;;;;8.57;4.53;;;18.10;99.90;;;18.70;100.00;98511.47;5026864;28;20465;-79
2023/06/25 01:24:36;;;;;;;6.00;4.40;;;18.10;99.90;;;18.67;100.00;98511.09;5025801;28;20485;-80
2023/06/25 01:27:06;;;;;;;8.60;5.10;;;18.00;99.90;;;18.61;100.00;98510.16;5025866;28;20473;-79
2023/06/25 01:29:35;;;;;;;5.37;4.30;;;18.00;99.90;;;18.60;100.00;98508.56;5027176;28;20483;-80
2023/06/25 01:32:06;;;;;;;10.83;5.30;;;18.00;99.90;;;18.59;100.00;98509.59;5024513;28;20478;-80
2023/06/25 01:34:36;;;;;;;7.40;5.27;;;17.90;99.90;;;18.52;100.00;98499.09;5025083;28;20581;-79
2023/06/25 01:37:07;;;;;;;9.07;5.13;;;17.90;99.90;;;18.47;100.00;98504.22;5026986;28;20513;-79
2023/06/25 01:39:37;;;;;;;7.80;5.00;;;17.80;99.90;;;18.45;100.00;98502.84;5027755;28;20508;-80
2023/06/25 01:42:08;;;;;;;16.13;5.50;;;17.80;99.90;;;18.44;100.00;98506.50;5025377;28;20458;-79
2023/06/25 01:44:37;;;;;;;6.43;4.80;;;17.80;99.90;;;18.41;100.00;98510.44;5027107;28;21225;-80
2023/06/25 01:47:06;;;;;;;7.17;5.00;;;17.70;99.90;;;18.34;100.00;98508.91;5026323;28;20541;-80
2023/06/25 01:49:35;;;;;;;8.47;5.73;;;17.70;99.90;;;18.33;100.00;98504.63;5026442;28;20554;-80
2023/06/25 01:52:04;;;;;;;7.27;4.87;;;17.70;99.90;;;18.31;100.00;98507.50;5026034;28;20466;-80
2023/06/25 01:54:32;;;;;;;6.00;4.83;;;17.70;99.90;;;18.27;100.00;98506.34;5027647;28;20462;-79
2023/06/25 01:57:03;;;;;;;7.47;5.33;;;17.60;99.90;;;18.21;100.00;98504.59;5025765;28;20465;-80
2023/06/25 01:59:34;;;;;;;8.23;5.03;;;17.60;99.90;;;18.17;100.00;98499.97;5025871;28;20895;-79
2023/06/25 02:02:04;;;;;;;9.50;5.20;;;17.50;99.90;;;18.25;100.00;98503.13;5025858;28;20470;-79
2023/06/25 02:04:34;;;;;;;5.90;4.30;;;17.50;99.90;;;18.19;100.00;98500.56;5025933;28;20540;-79
2023/06/25 02:07:03;;;;;;;11.00;5.53;;;17.50;99.90;;;18.14;100.00;98501.22;5025472;28;20497;-80
2023/06/25 02:09:33;;;;;;;6.17;4.53;;;17.40;99.90;;;18.09;100.00;98496.59;5026795;28;20467;-79
2023/06/25 02:12:04;;;;;;;8.37;5.00;;;17.40;99.90;;;18.05;100.00;98492.78;5025115;28;20537;-79
2023/06/25 02:14:33;;;;;;;7.60;5.00;;;17.40;99.90;;;17.93;100.00;98484.00;5026014;28;20477;-79
2023/06/25 02:17:02;;;;;;;7.03;4.87;;;17.30;99.90;;;17.91;100.00;98490.53;5025634;28;20473;-80
2023/06/25 02:19:31;;;;;;;12.50;4.83;;;17.30;99.90;;;17.86;100.00;98487.75;5026108;28;20473;-79
2023/06/25 02:21:59;;;;;;;7.97;4.63;;;17.30;99.90;;;17.88;100.00;98490.97;5023468;28;20470;-78
2023/06/25 02:24:28;;;;;;;6.20;4.30;;;17.20;99.90;;;17.90;100.00;98494.22;5025933;28;20458;-80
2023/06/25 02:26:57;;;;;;;5.40;4.60;;;17.20;99.90;;;17.91;100.00;98486.03;5024934;28;20571;-79
2023/06/25 02:29:27;;;;;;;7.80;5.20;;;17.20;99.90;;;17.87;100.00;98482.25;5024291;28;20463;-80
2023/06/25 02:31:56;;;;;;;7.40;4.57;;;17.10;99.90;;;17.84;100.00;98482.66;5025436;28;20462;-79
2023/06/25 02:34:26;;;;;;;7.03;5.03;;;17.10;99.90;;;17.87;100.00;98481.44;5025733;28;21144;-80
2023/06/25 02:36:55;;;;;;;7.13;4.80;;;17.10;99.90;;;17.84;100.00;98484.53;5025440;28;20536;-80
2023/06/25 02:39:24;;;;;;;6.93;4.50;;;17.10;99.90;;;17.79;100.00;98481.72;5024900;28;20540;-79
2023/06/25 02:41:53;;;;;;;5.53;4.57;;;17.10;99.90;;;17.77;100.00;98479.28;5026337;28;20466;-80
2023/06/25 02:44:22;;;;;;;7.83;4.90;;;17.10;99.90;;;17.73;100.00;98477.34;5026471;28;20493;-80
2023/06/25 02:46:53;;;;;;;6.60;4.60;;;17.00;99.90;;;17.70;100.00;98480.44;5025773;28;21046;-79
2023/06/25 02:49:22;;;;;;;5.30;4.80;;;17.00;99.90;;;17.63;100.00;98479.69;5024305;28;20450;-79
2023/06/25 02:51:50;;;;;;;7.97;4.87;;;16.90;99.90;;;17.65;100.00;98474.97;5026584;28;20492;-80
2023/06/25 02:54:19;;;;;;;7.93;5.00;;;16.90;99.90;;;17.63;100.00;98467.28;5024793;28;20457;-79
2023/06/25 02:56:50;;;;;;;7.07;4.90;;;16.90;99.90;;;17.63;100.00;98472.56;5024895;28;20466;-79
2023/06/25 02:59:19;;;;;;;6.30;5.67;;;16.90;99.90;;;17.58;100.00;98462.63;5026405;28;20516;-79
2023/06/25 03:01:48;;;;;;;6.37;5.20;;;16.90;99.90;;;17.54;100.00;98469.38;5024197;28;20475;-79
2023/06/25 03:04:18;;;;;;;7.20;5.00;;;16.80;99.90;;;17.49;100.00;98463.13;5024897;28;20561;-80
2023/06/25 03:06:47;;;;;;;7.43;4.63;;;16.80;99.90;;;17.44;100.00;98471.72;5025337;28;21062;-79
2023/06/25 03:09:16;;;;;;;9.30;5.07;;;16.80;99.90;;;17.42;100.00;98471.13;5025974;28;20462;-80
2023/06/25 03:11:53;;;;;;;6.17;4.50;;;16.70;99.90;;;17.41;100.00;98471.34;5024201;28;20470;-80
2023/06/25 03:14:22;;;;;;;8.30;5.73;;;16.70;99.90;;;17.44;100.00;98463.78;5025320;28;20458;-80
2023/06/25 03:17:02;;;;;;;9.03;5.23;;;16.70;99.90;;;17.43;100.00;98466.63;5024701;28;20545;-79
2023/06/25 03:19:33;;;;;;;11.00;5.77;;;16.70;99.90;;;17.40;100.00;98470.53;5024918;28;20465;-79
2023/06/25 03:22:02;;;;;;;5.80;4.47;;;16.60;99.90;;;17.38;100.00;98467.31;5024966;28;20465;-79
2023/06/25 03:24:31;;;;;;;7.90;5.10;;;16.60;99.90;;;17.30;100.00;98467.59;5025243;28;20462;-79
2023/06/25 03:27:00;;;;;;;5.83;4.07;;;16.60;99.90;;;17.26;100.00;98470.88;5024812;28;20497;-79
2023/06/25 03:29:29;;;;;;;7.13;5.20;;;16.50;99.90;;;17.17;100.00;98477.50;5023720;28;21059;-80
2023/06/25 03:31:58;;;;;;;16.90;4.90;;;16.50;99.90;;;17.14;100.00;98468.19;5023204;28;20486;-79
2023/06/25 03:34:27;;;;;;;7.70;5.10;;;16.50;99.90;;;17.15;100.00;98469.78;5025396;28;20538;-80
2023/06/25 03:36:57;;;;;;;8.53;5.90;;;16.40;99.90;;;17.13;100.00;98466.56;5023872;28;20473;-79
2023/06/25 03:39:26;;;;;;;6.33;5.07;;;16.40;99.90;;;17.09;100.00;98462.72;5024590;28;20462;-80
2023/06/25 03:41:55;;;;;;;7.47;5.30;;;16.40;99.90;;;17.06;100.00;98463.16;5024558;28;20496;-79
2023/06/25 03:44:24;;;;;;;6.03;5.10;;;16.40;99.90;;;17.06;100.00;98471.09;5025782;28;20466;-79
2023/06/25 03:46:54;;;;;;;8.40;5.10;;;16.40;99.90;;;17.04;100.00;98462.59;5025646;28;20534;-79
2023/06/25 03:49:22;;;;;;;8.27;5.00;;;16.30;99.90;;;17.06;100.00;98465.81;5025396;28;20469;-80
2023/06/25 03:51:51;;;;;;;5.93;4.80;;;16.30;99.90;;;17.04;100.00;98465.22;5023919;28;20470;-79
2023/06/25 03:54:21;;;;;;;8.37;5.70;;;16.30;99.90;;;17.03;100.00;98460.97;5025202;28;20462;-80
2023/06/25 03:56:51;;;;;;;7.00;5.13;;;16.40;99.90;;;17.01;100.00;98460.34;5024022;28;20461;-80
2023/06/25 03:59:19;;;;;;;7.70;5.50;;;16.30;99.90;;;16.92;100.00;98459.03;5025246;28;20465;-79
2023/06/25 04:01:48;;;;;;;7.90;5.07;;;16.30;99.90;;;16.94;100.00;98459.59;5024064;28;20458;-79
2023/06/25 04:04:17;;;;;;;5.90;5.10;;;16.20;99.90;;;16.94;100.00;98462.25;5023705;28;20453;-79
2023/06/25 04:06:45;;;;;;;8.07;4.67;;;16.20;99.90;;;16.96;100.00;98463.66;5024058;28;20585;-79
2023/06/25 04:09:15;;;;;;;7.20;4.80;;;16.20;99.90;;;16.99;100.00;98465.06;5024112;28;20845;-79
2023/06/25 04:11:44;;;;;;;6.40;5.23;;;16.20;99.90;;;16.95;100.00;98461.22;5022570;28;20538;-80
2023/06/25 04:14:13;;;;;;;9.50;4.80;;;16.20;99.90;;;16.99;100.00;98462.41;5023418;28;20466;-79
2023/06/25 04:16:42;;;;;;;9.03;6.10;;;16.20;99.90;;;17.01;100.00;98465.63;5023159;28;20465;-80
2023/06/25 04:19:12;;;;;;;5.87;4.70;;;16.20;99.90;;;17.04;100.00;98462.59;5023925;28;20462;-79
2023/06/25 04:21:41;;;;;;;8.43;5.60;;;16.30;99.90;;;17.02;100.00;98459.34;5023616;28;20474;-79
2023/06/25 04:24:10;;;;;;;7.20;5.40;;;16.30;99.90;;;17.03;100.00;98459.13;5023409;28;20470;-79
2023/06/25 04:26:39;;;;;;;6.03;5.10;;;16.30;99.90;;;17.02;100.00;98457.50;5022895;28;21118;-80
2023/06/25 04:29:09;;;;;;;6.57;5.00;;;16.30;99.90;;;17.06;100.00;98457.88;5021687;28;20497;-80
2023/06/25 04:31:38;;;;;;;17.87;7.00;;;16.30;99.90;;;17.05;100.00;98459.72;5019398;28;20462;-80
2023/06/25 04:34:08;;;;;;;8.00;6.07;;;16.30;99.90;;;17.11;100.00;98458.84;5016735;28;20506;-83
2023/06/25 04:36:38;;;;;;;8.20;5.23;;;16.30;99.90;;;17.16;100.00;98463.47;5021035;28;21874;-80
2023/06/25 04:39:08;;;;;;;7.10;4.80;;;16.30;99.90;;;17.21;100.00;98458.34;5021077;28;20501;-82
2023/06/25 04:41:37;;;;;;;6.23;4.30;;;16.40;99.90;;;17.20;100.00;98456.72;5021751;28;21466;-80
2023/06/25 04:44:06;;;;;;;9.00;5.13;;;16.40;99.90;;;17.22;100.00;98459.94;5020895;28;20466;-80
2023/06/25 04:46:36;;;;;;;7.90;5.03;;;16.40;99.90;;;17.27;100.00;98462.75;5026382;28;20501;-84
2023/06/25 04:49:05;;;;;;;11.37;6.30;;;16.40;99.90;;;17.27;100.00;98454.81;5025258;28;20968;-80
2023/06/25 04:51:34;;;;;;;8.00;5.77;;;16.50;99.90;;;17.29;100.00;98462.50;5023892;28;20478;-79
2023/06/25 04:54:03;;;;;;;6.10;4.90;;;16.50;99.90;;;17.29;100.00;98459.88;5026016;28;20552;-79
2023/06/25 04:56:31;;;;;;;6.40;5.20;;;16.50;99.90;;;17.29;100.00;98455.41;5025575;28;20464;-82
2023/06/25 04:59:00;;;;;;;6.20;5.23;;;16.50;99.90;;;17.33;100.00;98463.69;5023660;28;20914;-79
2023/06/25 05:01:32;;;;;;;9.23;5.50;;;16.60;99.90;;;17.39;100.00;98466.28;5025736;28;20527;-79
2023/06/25 05:04:02;;;;;;;8.00;5.37;;;16.60;99.90;;;17.44;100.00;98465.63;5024861;28;20470;-79
2023/06/25 05:06:32;;;;;;;9.57;6.40;;;16.60;99.90;;;17.44;100.00;98463.78;5023942;28;20549;-79
2023/06/25 05:09:01;;;;;;;9.10;5.23;;;16.70;99.90;;;17.47;100.00;98459.88;5023398;28;20469;-84
2023/06/25 05:11:32;;;;;;;9.03;5.43;;;16.70;99.90;;;17.50;100.00;98462.91;5024377;28;20465;-79
2023/06/25 05:14:02;;;;;;;6.60;5.00;;;16.70;99.90;;;17.54;100.00;98464.06;5023470;28;20461;-79
2023/06/25 05:16:31;;;;;;;39.70;6.20;;;16.80;99.90;;;17.59;100.00;98466.09;5024826;28;20541;-79
2023/06/25 05:19:00;;;;;;;7.33;5.10;;;16.80;99.90;;;17.65;100.00;98464.41;5023712;28;20469;-79
2023/06/25 05:21:31;;;;;;;7.00;5.10;;;16.80;99.90;;;17.67;100.00;98465.78;5024126;28;20465;-79
2023/06/25 05:24:03;;;;;;;6.83;5.40;;;16.90;99.90;;;17.72;100.00;98459.84;5025609;28;20477;-80
2023/06/25 05:26:32;;;;;;;7.57;5.63;;;16.90;99.90;;;17.77;100.00;98457.34;5008552;28;20468;-79
2023/06/25 05:29:01;;;;;;;8.23;5.27;;;16.90;99.90;;;17.81;100.00;98459.31;5026677;28;20466;-79
2023/06/25 05:31:30;;;;;;;8.43;5.07;;;17.00;99.90;;;17.88;100.00;98464.50;5027548;28;20473;-79
2023/06/25 05:34:01;;;;;;;7.87;5.43;;;17.00;99.90;;;17.90;100.00;98457.16;5026288;28;20462;-80
2023/06/25 05:36:31;;;;;;;6.70;5.00;;;17.10;99.90;;;17.97;100.00;98453.41;5023364;28;20474;-79
2023/06/25 05:39:00;;;;;;;9.30;4.80;;;17.10;99.90;;;18.04;100.00;98464.72;5023895;28;20470;-79
2023/06/25 05:41:29;;;;;;;7.30;5.17;;;17.10;99.90;;;18.09;100.00;98462.19;5025378;28;20470;-79
2023/06/25 05:43:59;;;;;;;6.50;4.87;;;17.20;99.90;;;18.13;100.00;98449.31;5025878;28;20473;-79
2023/06/25 05:46:27;;;;;;;6.43;5.00;;;17.30;99.90;;;18.18;100.00;98453.94;5024091;28;21544;-79
2023/06/25 05:48:56;;;;;;;8.27;5.07;;;17.30;99.90;;;18.21;100.00;98451.66;5023579;28;20462;-79
2023/06/25 05:51:25;;;;;;;8.97;5.60;;;17.30;99.90;;;18.25;100.00;98449.34;5022813;28;20458;-80
2023/06/25 05:53:55;;;;;;;6.03;5.00;;;17.40;99.90;;;18.28;100.00;98448.91;5021401;28;20867;-79
2023/06/25 05:56:24;;;;;;;8.63;5.37;;;17.40;99.90;;;18.34;100.00;98437.41;5022868;28;20466;-79
2023/06/25 05:58:53;;;;;;;7.30;5.10;;;17.50;99.90;;;18.39;100.00;98446.28;5023830;28;20499;-79
2023/06/25 06:01:22;;;;;;;35.07;20.43;;;17.50;99.90;;;18.45;100.00;98440.09;5021123;28;20954;-79
2023/06/25 06:03:50;;;;;;;7.87;5.20;;;17.50;99.90;;;18.49;100.00;98443.09;5024021;28;20466;-79
2023/06/25 06:06:19;;;;;;;7.13;5.20;;;17.60;99.90;;;18.55;100.00;98439.56;5022796;28;20524;-79
2023/06/25 06:08:48;;;;;;;7.37;4.60;;;17.60;99.90;;;18.62;100.00;98448.19;5022211;28;20489;-79
2023/06/25 06:11:18;;;;;;;8.80;5.23;;;17.70;99.90;;;18.68;100.00;98441.16;5023608;28;20470;-84
2023/06/25 06:13:46;;;;;;;11.87;8.20;;;17.70;99.90;;;18.73;100.00;98447.41;5026422;28;20970;-78
2023/06/25 06:16:15;;;;;;;9.13;4.87;;;17.80;99.90;;;18.78;100.00;98444.88;5022038;28;20507;-79
2023/06/25 06:18:43;;;;;;;13.40;5.27;;;17.80;99.90;;;18.83;100.00;98444.19;5026196;28;20478;-79
2023/06/25 06:21:12;;;;;;;6.37;4.93;;;17.90;99.90;;;18.88;100.00;98447.75;5026175;28;20516;-79
2023/06/25 06:23:40;;;;;;;8.20;5.00;;;18.00;99.90;;;18.93;100.00;98436.47;5025661;28;20474;-79
2023/06/25 06:26:11;;;;;;;5.77;4.87;;;18.00;99.90;;;18.99;100.00;98440.84;5026538;28;20478;-79
2023/06/25 06:28:41;;;;;;;7.13;5.03;;;18.10;99.90;;;19.04;100.00;98436.47;5026086;28;20501;-79
2023/06/25 06:31:11;;;;;;;6.90;5.00;;;18.10;99.90;;;19.09;100.00;98439.22;5024421;28;20462;-79
2023/06/25 06:33:39;;;;;;;6.27;4.43;;;18.10;99.90;;;19.15;100.00;98431.38;5026585;28;20459;-80
2023/06/25 06:36:09;;;;;;;7.93;4.80;;;18.20;99.90;;;19.20;100.00;98427.00;5025720;28;20904;-79
2023/06/25 06:38:39;;;;;;;7.23;4.43;;;18.30;99.90;;;19.26;100.00;98431.38;5024796;28;20838;-79
2023/06/25 06:41:07;;;;;;;8.17;5.17;;;18.40;99.90;;;19.31;100.00;98422.72;5024629;28;20466;-79
2023/06/25 06:43:36;;;;;;;6.30;4.80;;;18.40;99.90;;;19.37;100.00;98425.22;5025611;28;20497;-79
2023/06/25 06:46:07;;;;;;;8.60;5.97;;;18.50;99.90;;;19.42;100.00;98427.22;5024651;28;20949;-79
2023/06/25 06:48:37;;;;;;;9.70;5.70;;;18.50;99.90;;;19.47;100.00;98427.34;5022417;28;20532;-80
2023/06/25 06:51:06;;;;;;;6.40;5.27;;;18.60;99.90;;;19.53;100.00;98423.75;5024313;28;20470;-79
2023/06/25 06:53:35;;;;;;;10.30;6.30;;;18.60;99.90;;;19.62;100.00;98426.81;5023692;28;20473;-79
2023/06/25 06:56:06;;;;;;;8.10;4.73;;;18.70;99.90;;;19.66;100.00;98418.16;5022130;28;20984;-79
2023/06/25 06:58:38;;;;;;;8.97;5.10;;;18.70;99.90;;;19.72;100.00;98417.22;5022133;28;20477;-79
2023/06/25 07:01:09;;;;;;;52.93;31.80;;;18.80;99.90;;;19.79;100.00;98419.72;5023250;28;20861;-82
2023/06/25 07:03:38;;;;;;;29.17;19.87;;;18.90;99.90;;;19.86;100.00;98423.03;5022455;28;20468;-76
2023/06/25 07:06:07;;;;;;;19.03;6.17;;;19.00;99.90;;;19.93;100.00;98402.47;5021482;28;20529;-80
2023/06/25 07:08:35;;;;;;;7.60;4.73;;;19.00;99.90;;;19.97;100.00;98406.25;5022271;28;21111;-81
2023/06/25 07:11:04;;;;;;;8.70;5.70;;;19.10;99.90;;;20.03;100.00;98402.66;5020004;28;20478;-81
2023/06/25 07:13:33;;;;;;;9.70;5.10;;;19.20;99.90;;;20.10;100.00;98405.97;5020833;28;21016;-81
2023/06/25 07:16:02;;;;;;;6.50;4.90;;;19.30;99.90;;;20.17;100.00;98406.63;5020690;28;20465;-82
2023/06/25 07:18:32;;;;;;;6.60;4.50;;;19.40;99.90;;;20.23;100.00;98408.34;5020165;28;20474;-81
2023/06/25 07:21:01;;;;;;;7.43;4.90;;;19.40;99.90;;;20.32;100.00;98408.75;5022400;28;20473;-80
2023/06/25 07:23:30;;;;;;;8.57;5.17;;;19.50;99.90;;;20.37;100.00;98407.00;5020100;28;20989;-81
2023/06/25 07:25:59;;;;;;;7.47;5.17;;;19.60;99.90;;;20.45;100.00;98406.59;5024968;28;20466;-80
2023/06/25 07:28:27;;;;;;;6.20;5.00;;;19.60;99.90;;;20.50;100.00;98406.69;5022352;28;20489;-80
2023/06/25 07:30:56;;;;;;;6.97;5.30;;;19.70;99.90;;;20.58;100.00;98402.81;5022645;28;20466;-81
2023/06/25 07:33:24;;;;;;;7.00;4.73;;;19.80;99.90;;;20.66;100.00;98406.91;5023394;28;20462;-81
2023/06/25 07:35:54;;;;;;;5.80;4.30;;;19.90;99.90;;;20.72;100.00;98409.41;5023114;28;20492;-81
2023/06/25 07:38:23;;;;;;;8.53;4.70;;;20.00;99.90;;;20.80;100.00;98402.88;5022939;28;20960;-82
2023/06/25 07:40:51;;;;;;;5.47;4.30;;;20.00;99.90;;;20.88;100.00;98407.78;5022745;28;20543;-81
2023/06/25 07:43:21;;;;;;;7.23;4.50;;;20.10;99.90;;;20.94;100.00;98412.94;5023467;28;20516;-82
2023/06/25 07:45:50;;;;;;;6.33;4.30;;;20.20;99.90;;;21.02;100.00;98403.72;5023789;28;20466;-81
2023/06/25 07:48:19;;;;;;;6.03;4.43;;;20.20;99.20;;;21.08;100.00;98402.75;5022647;28;20498;-81
2023/06/25 07:50:50;;;;;;;55.87;36.10;;;20.30;99.10;;;21.13;100.00;98402.88;5023472;28;20478;-84
2023/06/25 07:53:20;;;;;;;24.20;14.20;;;20.30;99.40;;;21.20;100.00;98402.69;5022994;28;20462;-81
2023/06/25 07:55:49;;;;;;;7.70;5.50;;;20.40;99.50;;;21.26;100.00;98404.34;5023105;28;20462;-81
2023/06/25 07:58:30;;;;;;;5.30;4.30;;;20.50;99.20;;;21.32;100.00;98403.34;5020127;28;20454;-82
2023/06/25 08:00:59;;;;;;;7.87;4.23;;;20.50;98.80;;;21.39;100.00;98404.78;5019261;28;20829;-83
2023/06/25 08:03:27;;;;;;;6.30;4.30;;;20.60;98.70;;;21.46;100.00;98388.63;5019600;28;20473;-82
2023/06/25 08:05:56;;;;;;;6.33;4.37;;;20.70;98.30;;;21.52;100.00;98393.75;5022536;28;20910;-82
2023/06/25 08:08:26;;;;;;;10.83;4.77;;;20.70;98.50;;;21.61;100.00;98401.31;5022567;28;20489;-82
2023/06/25 08:10:55;;;;;;;8.43;4.60;;;20.80;98.30;;;21.67;100.00;98394.97;5022491;28;20520;-81
2023/06/25 08:13:23;;;;;;;29.03;18.57;;;20.90;98.70;;;21.74;99.65;98395.59;5023622;28;21015;-88
2023/06/25 08:15:52;;;;;;;6.53;4.47;;;21.00;98.80;;;21.84;98.20;98390.38;5020231;28;20481;-82
2023/06/25 08:18:21;;;;;;;5.87;4.47;;;21.10;98.40;;;21.92;97.99;98393.44;5023195;28;20520;-82
2023/06/25 08:20:50;;;;;;;6.87;4.30;;;21.20;98.30;;;22.00;96.51;98389.53;5026929;28;20470;-81
2023/06/25 08:23:19;;;;;;;5.17;4.40;;;21.30;98.40;;;22.11;93.55;98377.09;5027275;28;20472;-82
2023/06/25 08:25:49;;;;;;;5.40;4.03;;;21.40;97.40;;;22.18;93.83;98391.03;5025078;28;20467;-81
2023/06/25 08:28:19;;;;;;;131.90;74.47;;;21.40;97.50;;;22.25;92.42;98384.41;5025277;28;20536;-81
2023/06/25 08:30:47;;;;;;;12.43;8.60;;;21.60;97.40;;;22.31;92.66;98375.41;5024546;28;20461;-82
2023/06/25 08:33:16;;;;;;;6.37;4.50;;;21.60;97.50;;;22.37;91.58;98374.41;5025688;28;20469;-81
2023/06/25 08:35:45;;;;;;;5.53;4.20;;;21.70;97.30;;;22.43;91.34;98376.03;5028428;28;20581;-81
2023/06/25 08:38:17;;;;;;;4.60;3.63;;;21.70;97.10;;;22.51;91.29;98377.44;5028156;28;20458;-81
2023/06/25 08:40:50;;;;;;;5.23;4.13;;;21.80;97.00;;;22.56;90.22;98364.16;5028368;28;20964;-81
2023/06/25 08:43:18;;;;;;;7.53;4.40;;;21.80;96.80;;;22.63;88.19;98366.59;5027625;28;20466;-81
2023/06/25 08:45:48;;;;;;;7.50;5.77;;;21.90;96.50;;;22.70;87.49;98361.88;5025923;28;20861;-88
2023/06/25 08:48:18;;;;;;;12.27;7.83;;;22.00;96.30;;;22.77;86.63;98357.91;5026460;28;20466;-81
2023/06/25 08:50:56;;;;;;;3.80;3.40;;;22.00;95.90;;;22.90;82.52;98351.31;5027725;28;20473;-82
2023/06/25 08:53:26;;;;;;;5.60;3.60;;;22.20;95.20;;;22.98;82.46;98358.81;5028160;28;20464;-81
2023/06/25 08:55:59;;;;;;;32.07;21.20;;;22.30;95.30;;;23.06;82.71;98361.00;5026286;28;20540;-86
2023/06/25 08:58:31;;;;;;;12.30;7.73;;;22.30;95.20;;;23.10;82.50;98355.94;5025216;28;21176;-81
2023/06/25 09:01:00;;;;;;;5.30;3.90;;;22.40;95.20;;;23.15;82.75;98354.09;5023992;28;20473;-81
2023/06/25 09:03:31;;;;;;;8.07;3.80;;;22.40;95.40;;;23.26;80.15;98355.75;5025913;28;20520;-81
2023/06/25 09:06:01;;;;;;;26.47;4.10;;;22.60;95.10;;;23.33;79.23;98350.97;5027029;28;20470;-81
2023/06/25 09:08:29;;;;;;;12.33;3.90;;;22.60;94.30;;;23.40;76.90;98353.41;5028767;28;20568;-81
2023/06/25 09:10:59;;;;;;;5.90;3.50;;;22.70;93.80;;;23.47;76.48;98351.31;5026568;28;20446;-82
2023/06/25 09:13:29;;;;;;;4.37;3.60;;;22.80;93.50;;;23.55;74.41;98340.94;5026327;28;20490;-82
2023/06/25 09:16:03;;;;;;;5.60;4.00;;;22.90;93.60;;;23.63;74.81;98352.19;5027384;28;20557;-82
2023/06/25 09:18:33;;;;;;;4.47;3.40;;;22.90;93.60;;;23.81;67.13;98341.78;5027102;28;20462;-83
2023/06/25 09:21:05;;;;;;;8.60;3.37;;;23.20;91.60;;;23.89;67.64;98338.59;5026269;28;20493;-83
2023/06/25 09:23:35;;;;;;;5.30;3.13;;;23.20;91.90;;;24.00;66.70;98340.22;5027220;28;20468;-83
2023/06/25 09:26:09;;;;;;;5.37;3.53;;;23.30;91.50;;;24.15;63.60;98342.13;5025828;28;20474;-83
2023/06/25 09:28:49;;;;;;;4.30;3.50;;;23.40;90.80;;;24.27;62.90;98336.50;5026165;28;20466;-83
2023/06/25 09:31:18;;;;;;;5.03;3.73;;;23.60;90.90;;;24.34;63.77;98329.00;5025882;28;20820;-82
2023/06/25 09:33:52;;;;;;;4.50;3.30;;;23.60;90.90;;;24.45;63.28;98341.31;5027330;28;20485;-83
2023/06/25 09:36:21;;;;;;;5.80;3.30;;;23.70;90.60;;;24.57;59.69;98338.34;5027151;28;20462;-83
2023/06/25 09:38:53;;;;;;;5.40;3.80;;;23.90;89.80;;;24.62;59.76;98328.44;5027180;28;20462;-83
2023/06/25 09:41:25;;;;;;;4.20;3.27;;;24.00;89.50;;;24.73;58.86;98334.56;5025862;28;20553;-83
2023/06/25 09:43:57;;;;;;;5.43;3.60;;;24.10;88.80;;;24.80;58.00;98337.78;5027322;28;20470;-83
2023/06/25 09:46:28;;;;;;;4.20;3.20;;;24.20;88.20;;;24.83;58.53;98326.56;5026897;28;20469;-84
2023/06/25 09:49:01;;;;;;;6.97;3.60;;;24.20;88.70;;;24.86;58.67;98320.66;5025347;28;20489;-83
2023/06/25 09:51:38;;;;;;;5.33;3.50;;;24.20;88.70;;;24.94;57.57;98325.44;5026388;28;20461;-83
2023/06/25 09:54:11;;;;;;;5.00;3.37;;;24.30;88.30;;;25.05;56.65;98319.00;5026743;28;20584;-83
2023/06/25 09:56:46;;;;;;;3.90;3.07;;;24.50;87.70;;;25.21;56.92;98317.03;5026467;28;20454;-83
2023/06/25 09:59:15;;;;;;;5.87;3.50;;;24.50;87.80;;;25.28;56.54;98318.34;5026111;28;20501;-84
2023/06/25 10:01:43;;;;;;;5.30;3.37;;;24.60;87.40;;;25.39;55.99;98313.75;5025766;28;20466;-84
2023/06/25 10:04:13;;;;;;;4.07;3.37;;;24.70;87.70;;;25.46;56.04;98309.69;5026414;28;20949;-84
2023/06/25 10:06:43;;;;;;;5.23;3.70;;;24.80;87.10;;;25.56;55.90;98305.38;5026213;28;20458;-83
2023/06/25 10:09:11;;;;;;;5.00;3.60;;;24.90;87.80;;;25.61;56.09;98306.16;5026718;28;20497;-83
2023/06/25 10:11:51;;;;;;;4.80;3.63;;;25.00;87.70;;;25.59;57.41;98300.25;5024897;28;20482;-83
2023/06/25 10:14:19;;;;;;;5.03;3.87;;;24.90;88.40;;;25.61;56.76;98303.50;5026621;28;20967;-83
2023/06/25 10:16:57;;;;;;;4.40;3.57;;;25.00;87.90;;;25.61;56.33;98295.44;5026956;28;20466;-83
2023/06/25 10:19:27;;;;;;;3.63;3.00;;;25.00;87.90;;;25.61;56.93;98295.44;5025931;28;20461;-83
2023/06/25 10:22:06;;;;;;;7.47;4.20;;;25.00;87.80;;;25.71;55.91;98299.94;5023128;28;20466;-84
2023/06/25 10:24:42;;;;;;;5.90;4.37;;;25.10;87.30;;;25.70;56.39;98301.00;5025725;28;20470;-83